sensor_id;sensor_type;location;lat;lon;timestamp;P1;durP1;ratioP1;P2;durP2;ratioP2
13785;SDS011;47474;48.824;9.384;2023-02-08T00:01:05;14.97;;;9.13;;
13785;SDS011;47474;48.824;9.384;2023-02-08T00:03:32;13.07;;;8.50;;
13785;SDS011;47474;48.824;9.384;2023-02-08T00:05:59;13.73;;;9.47;;
13785;SDS011;47474;48.824;9.384;2023-02-08T00:08:28;11.70;;;8.63;;
13785;SDS011;47474;48.824;9.384;2023-02-08T00:10:56;13.03;;;9.70;;
13785;SDS011;47474;48.824;9.384;2023-02-08T00:13:27;11.97;;;8.77;;
13785;SDS011;47474;48.824;9.384;2023-02-08T00:15:56;14.30;;;8.20;;
13785;SDS011;47474;48.824;9.384;2023-02-08T00:18:23;14.70;;;9.87;;
13785;SDS011;47474;48.824;9.384;2023-02-08T00:21:06;14.33;;;9.90;;
13785;SDS011;47474;48.824;9.384;2023-02-08T00:23:35;11.23;;;8.57;;
13785;SDS011;47474;48.824;9.384;2023-02-08T00:26:05;13.00;;;9.10;;
13785;SDS011;47474;48.824;9.384;2023-02-08T00:28:36;15.73;;;9.47;;
13785;SDS011;47474;48.824;9.384;2023-02-08T00:31:04;14.17;;;9.07;;
13785;SDS011;47474;48.824;9.384;2023-02-08T00:33:31;13.30;;;9.63;;
13785;SDS011;47474;48.824;9.384;2023-02-08T00:35:58;15.63;;;9.17;;
13785;SDS011;47474;48.824;9.384;2023-02-08T00:38:28;14.13;;;8.50;;
13785;SDS011;47474;48.824;9.384;2023-02-08T00:40:56;12.40;;;8.67;;
13785;SDS011;47474;48.824;9.384;2023-02-08T00:43:25;14.77;;;8.90;;
13785;SDS011;47474;48.824;9.384;2023-02-08T00:45:56;14.13;;;9.47;;
13785;SDS011;47474;48.824;9.384;2023-02-08T00:48:25;12.50;;;8.27;;
13785;SDS011;47474;48.824;9.384;2023-02-08T00:50:59;15.23;;;9.27;;
13785;SDS011;47474;48.824;9.384;2023-02-08T00:53:26;11.53;;;8.93;;
13785;SDS011;47474;48.824;9.384;2023-02-08T00:55:54;22.90;;;13.90;;
13785;SDS011;47474;48.824;9.384;2023-02-08T00:58:25;19.03;;;12.10;;
13785;SDS011;47474;48.824;9.384;2023-02-08T01:00:52;18.00;;;10.10;;
13785;SDS011;47474;48.824;9.384;2023-02-08T01:03:20;14.47;;;10.30;;
13785;SDS011;47474;48.824;9.384;2023-02-08T01:05:47;16.17;;;10.57;;
13785;SDS011;47474;48.824;9.384;2023-02-08T01:08:14;13.73;;;9.57;;
13785;SDS011;47474;48.824;9.384;2023-02-08T01:10:44;15.83;;;10.00;;
13785;SDS011;47474;48.824;9.384;2023-02-08T01:13:13;12.63;;;9.27;;
13785;SDS011;47474;48.824;9.384;2023-02-08T01:15:40;14.17;;;8.67;;
13785;SDS011;47474;48.824;9.384;2023-02-08T01:18:09;13.57;;;9.20;;
13785;SDS011;47474;48.824;9.384;2023-02-08T01:20:35;14.77;;;8.90;;
13785;SDS011;47474;48.824;9.384;2023-02-08T01:23:02;13.57;;;9.10;;
13785;SDS011;47474;48.824;9.384;2023-02-08T01:25:29;13.43;;;9.90;;
13785;SDS011;47474;48.824;9.384;2023-02-08T01:27:55;11.97;;;8.87;;
13785;SDS011;47474;48.824;9.384;2023-02-08T01:30:23;10.77;;;8.07;;
13785;SDS011;47474;48.824;9.384;2023-02-08T01:32:49;10.77;;;7.87;;
13785;SDS011;47474;48.824;9.384;2023-02-08T01:35:17;12.53;;;7.60;;
13785;SDS011;47474;48.824;9.384;2023-02-08T01:37:46;13.93;;;7.43;;
13785;SDS011;47474;48.824;9.384;2023-02-08T01:40:12;12.77;;;7.50;;
13785;SDS011;47474;48.824;9.384;2023-02-08T01:42:39;10.33;;;7.33;;
13785;SDS011;47474;48.824;9.384;2023-02-08T01:47:55;15.20;;;8.67;;
13785;SDS011;47474;48.824;9.384;2023-02-08T01:50:29;11.63;;;7.77;;
13785;SDS011;47474;48.824;9.384;2023-02-08T01:52:59;11.57;;;7.73;;
13785;SDS011;47474;48.824;9.384;2023-02-08T01:55:27;11.80;;;7.57;;
13785;SDS011;47474;48.824;9.384;2023-02-08T01:57:57;11.60;;;8.17;;
13785;SDS011;47474;48.824;9.384;2023-02-08T02:00:27;14.03;;;8.80;;
13785;SDS011;47474;48.824;9.384;2023-02-08T02:02:54;10.90;;;8.07;;
13785;SDS011;47474;48.824;9.384;2023-02-08T02:05:23;16.20;;;8.37;;
13785;SDS011;47474;48.824;9.384;2023-02-08T02:07:52;14.30;;;9.13;;
13785;SDS011;47474;48.824;9.384;2023-02-08T02:10:21;14.97;;;8.97;;
13785;SDS011;47474;48.824;9.384;2023-02-08T02:12:51;12.37;;;8.43;;
13785;SDS011;47474;48.824;9.384;2023-02-08T02:15:20;14.53;;;9.17;;
13785;SDS011;47474;48.824;9.384;2023-02-08T02:17:47;11.60;;;8.10;;
13785;SDS011;47474;48.824;9.384;2023-02-08T02:20:15;11.43;;;7.97;;
13785;SDS011;47474;48.824;9.384;2023-02-08T02:22:53;14.00;;;8.53;;
13785;SDS011;47474;48.824;9.384;2023-02-08T02:25:34;10.93;;;7.97;;
13785;SDS011;47474;48.824;9.384;2023-02-08T02:28:20;9.97;;;7.17;;
13785;SDS011;47474;48.824;9.384;2023-02-08T02:34:04;13.47;;;7.37;;
13785;SDS011;47474;48.824;9.384;2023-02-08T02:36:36;8.33;;;7.37;;
13785;SDS011;47474;48.824;9.384;2023-02-08T02:39:14;10.97;;;7.90;;
13785;SDS011;47474;48.824;9.384;2023-02-08T02:41:47;12.03;;;8.00;;
13785;SDS011;47474;48.824;9.384;2023-02-08T02:44:36;13.07;;;9.03;;
13785;SDS011;47474;48.824;9.384;2023-02-08T02:47:08;13.83;;;8.40;;
13785;SDS011;47474;48.824;9.384;2023-02-08T02:49:42;13.30;;;8.90;;
13785;SDS011;47474;48.824;9.384;2023-02-08T02:52:13;15.43;;;9.03;;
13785;SDS011;47474;48.824;9.384;2023-02-08T02:54:44;11.80;;;8.43;;
13785;SDS011;47474;48.824;9.384;2023-02-08T02:57:15;11.43;;;8.03;;
13785;SDS011;47474;48.824;9.384;2023-02-08T02:59:44;10.23;;;7.90;;
13785;SDS011;47474;48.824;9.384;2023-02-08T03:02:12;11.43;;;7.97;;
13785;SDS011;47474;48.824;9.384;2023-02-08T03:04:51;10.97;;;7.80;;
13785;SDS011;47474;48.824;9.384;2023-02-08T03:07:47;13.80;;;8.37;;
13785;SDS011;47474;48.824;9.384;2023-02-08T03:10:26;10.57;;;7.53;;
13785;SDS011;47474;48.824;9.384;2023-02-08T03:13:00;12.90;;;7.90;;
13785;SDS011;47474;48.824;9.384;2023-02-08T03:15:35;12.50;;;7.83;;
13785;SDS011;47474;48.824;9.384;2023-02-08T03:18:11;12.47;;;8.27;;
13785;SDS011;47474;48.824;9.384;2023-02-08T03:20:45;11.30;;;8.20;;
13785;SDS011;47474;48.824;9.384;2023-02-08T03:23:18;11.73;;;8.03;;
13785;SDS011;47474;48.824;9.384;2023-02-08T03:25:49;11.73;;;7.97;;
13785;SDS011;47474;48.824;9.384;2023-02-08T03:28:19;14.10;;;7.50;;
13785;SDS011;47474;48.824;9.384;2023-02-08T03:30:52;9.60;;;7.07;;
13785;SDS011;47474;48.824;9.384;2023-02-08T03:33:22;13.13;;;8.37;;
13785;SDS011;47474;48.824;9.384;2023-02-08T03:35:53;13.77;;;7.77;;
13785;SDS011;47474;48.824;9.384;2023-02-08T03:38:26;11.87;;;7.60;;
13785;SDS011;47474;48.824;9.384;2023-02-08T03:40:55;12.50;;;6.97;;
13785;SDS011;47474;48.824;9.384;2023-02-08T03:43:27;10.90;;;6.87;;
13785;SDS011;47474;48.824;9.384;2023-02-08T03:45:56;10.73;;;7.13;;
13785;SDS011;47474;48.824;9.384;2023-02-08T03:48:26;12.00;;;7.97;;
13785;SDS011;47474;48.824;9.384;2023-02-08T03:50:56;13.87;;;7.13;;
13785;SDS011;47474;48.824;9.384;2023-02-08T03:53:24;10.17;;;6.90;;
13785;SDS011;47474;48.824;9.384;2023-02-08T03:55:53;12.53;;;6.97;;
13785;SDS011;47474;48.824;9.384;2023-02-08T03:58:24;10.27;;;6.93;;
13785;SDS011;47474;48.824;9.384;2023-02-08T04:00:55;12.63;;;7.93;;
13785;SDS011;47474;48.824;9.384;2023-02-08T04:03:26;12.30;;;8.10;;
13785;SDS011;47474;48.824;9.384;2023-02-08T04:05:58;14.27;;;8.67;;
13785;SDS011;47474;48.824;9.384;2023-02-08T04:08:28;12.37;;;8.10;;
13785;SDS011;47474;48.824;9.384;2023-02-08T04:10:55;10.00;;;7.53;;
13785;SDS011;47474;48.824;9.384;2023-02-08T04:13:23;9.47;;;7.43;;
13785;SDS011;47474;48.824;9.384;2023-02-08T04:15:50;13.90;;;8.93;;
13785;SDS011;47474;48.824;9.384;2023-02-08T04:18:17;9.47;;;7.13;;
13785;SDS011;47474;48.824;9.384;2023-02-08T04:20:43;10.27;;;7.23;;
13785;SDS011;47474;48.824;9.384;2023-02-08T04:23:11;11.07;;;7.10;;
13785;SDS011;47474;48.824;9.384;2023-02-08T04:25:38;12.20;;;7.47;;
13785;SDS011;47474;48.824;9.384;2023-02-08T04:28:07;13.77;;;7.97;;
13785;SDS011;47474;48.824;9.384;2023-02-08T04:30:35;14.47;;;8.73;;
13785;SDS011;47474;48.824;9.384;2023-02-08T04:33:01;13.47;;;7.90;;
13785;SDS011;47474;48.824;9.384;2023-02-08T04:35:29;12.13;;;8.03;;
13785;SDS011;47474;48.824;9.384;2023-02-08T04:37:56;11.67;;;8.20;;
13785;SDS011;47474;48.824;9.384;2023-02-08T04:40:24;11.67;;;7.80;;
13785;SDS011;47474;48.824;9.384;2023-02-08T04:42:51;11.33;;;7.67;;
13785;SDS011;47474;48.824;9.384;2023-02-08T04:45:17;10.13;;;7.63;;
13785;SDS011;47474;48.824;9.384;2023-02-08T04:47:44;12.70;;;7.13;;
13785;SDS011;47474;48.824;9.384;2023-02-08T04:50:11;13.67;;;7.97;;
13785;SDS011;47474;48.824;9.384;2023-02-08T04:52:42;13.50;;;8.27;;
13785;SDS011;47474;48.824;9.384;2023-02-08T04:55:13;10.90;;;7.20;;
13785;SDS011;47474;48.824;9.384;2023-02-08T04:57:41;10.47;;;7.17;;
13785;SDS011;47474;48.824;9.384;2023-02-08T05:00:12;13.83;;;8.73;;
13785;SDS011;47474;48.824;9.384;2023-02-08T05:02:43;12.77;;;7.67;;
13785;SDS011;47474;48.824;9.384;2023-02-08T05:05:10;11.23;;;7.43;;
13785;SDS011;47474;48.824;9.384;2023-02-08T05:07:39;12.77;;;8.23;;
13785;SDS011;47474;48.824;9.384;2023-02-08T05:10:07;12.27;;;7.70;;
13785;SDS011;47474;48.824;9.384;2023-02-08T05:12:35;10.30;;;7.30;;
13785;SDS011;47474;48.824;9.384;2023-02-08T05:15:07;11.50;;;8.37;;
13785;SDS011;47474;48.824;9.384;2023-02-08T05:17:37;14.20;;;8.23;;
13785;SDS011;47474;48.824;9.384;2023-02-08T05:20:06;10.93;;;7.97;;
13785;SDS011;47474;48.824;9.384;2023-02-08T05:22:37;12.50;;;7.37;;
13785;SDS011;47474;48.824;9.384;2023-02-08T05:25:09;13.83;;;8.83;;
13785;SDS011;47474;48.824;9.384;2023-02-08T05:27:37;13.27;;;7.83;;
13785;SDS011;47474;48.824;9.384;2023-02-08T05:30:10;12.23;;;7.80;;
13785;SDS011;47474;48.824;9.384;2023-02-08T05:32:39;12.70;;;8.67;;
13785;SDS011;47474;48.824;9.384;2023-02-08T05:35:06;11.93;;;7.50;;
13785;SDS011;47474;48.824;9.384;2023-02-08T05:37:36;12.67;;;8.30;;
13785;SDS011;47474;48.824;9.384;2023-02-08T05:40:08;13.60;;;8.80;;
13785;SDS011;47474;48.824;9.384;2023-02-08T05:42:54;16.57;;;9.57;;
13785;SDS011;47474;48.824;9.384;2023-02-08T05:45:22;14.43;;;8.33;;
13785;SDS011;47474;48.824;9.384;2023-02-08T05:47:49;11.70;;;8.57;;
13785;SDS011;47474;48.824;9.384;2023-02-08T05:50:15;12.17;;;7.70;;
13785;SDS011;47474;48.824;9.384;2023-02-08T05:52:42;11.57;;;7.90;;
13785;SDS011;47474;48.824;9.384;2023-02-08T05:55:08;10.20;;;7.50;;
13785;SDS011;47474;48.824;9.384;2023-02-08T05:57:35;10.47;;;7.27;;
13785;SDS011;47474;48.824;9.384;2023-02-08T06:00:02;10.73;;;7.33;;
13785;SDS011;47474;48.824;9.384;2023-02-08T06:02:30;12.80;;;6.93;;
13785;SDS011;47474;48.824;9.384;2023-02-08T06:04:56;9.73;;;6.93;;
13785;SDS011;47474;48.824;9.384;2023-02-08T06:07:23;11.93;;;7.47;;
13785;SDS011;47474;48.824;9.384;2023-02-08T06:09:50;9.50;;;6.20;;
13785;SDS011;47474;48.824;9.384;2023-02-08T06:12:16;11.90;;;7.77;;
13785;SDS011;47474;48.824;9.384;2023-02-08T06:14:43;10.30;;;7.03;;
13785;SDS011;47474;48.824;9.384;2023-02-08T06:17:09;11.40;;;7.33;;
13785;SDS011;47474;48.824;9.384;2023-02-08T06:19:40;10.80;;;7.30;;
13785;SDS011;47474;48.824;9.384;2023-02-08T06:22:07;11.70;;;7.13;;
13785;SDS011;47474;48.824;9.384;2023-02-08T06:24:34;10.93;;;6.93;;
13785;SDS011;47474;48.824;9.384;2023-02-08T06:27:00;11.50;;;7.53;;
13785;SDS011;47474;48.824;9.384;2023-02-08T06:29:27;9.93;;;7.33;;
13785;SDS011;47474;48.824;9.384;2023-02-08T06:31:54;11.57;;;7.27;;
13785;SDS011;47474;48.824;9.384;2023-02-08T06:34:22;13.43;;;8.40;;
13785;SDS011;47474;48.824;9.384;2023-02-08T06:36:50;10.53;;;7.77;;
13785;SDS011;47474;48.824;9.384;2023-02-08T06:39:17;11.63;;;7.90;;
13785;SDS011;47474;48.824;9.384;2023-02-08T06:41:43;11.67;;;7.97;;
13785;SDS011;47474;48.824;9.384;2023-02-08T06:44:09;15.43;;;8.00;;
13785;SDS011;47474;48.824;9.384;2023-02-08T06:46:36;15.63;;;7.73;;
13785;SDS011;47474;48.824;9.384;2023-02-08T06:49:02;13.60;;;8.03;;
13785;SDS011;47474;48.824;9.384;2023-02-08T06:51:28;10.33;;;6.67;;
13785;SDS011;47474;48.824;9.384;2023-02-08T06:53:56;14.00;;;7.50;;
13785;SDS011;47474;48.824;9.384;2023-02-08T06:56:23;13.13;;;8.23;;
13785;SDS011;47474;48.824;9.384;2023-02-08T06:58:49;11.23;;;7.50;;
13785;SDS011;47474;48.824;9.384;2023-02-08T07:01:15;11.63;;;8.17;;
13785;SDS011;47474;48.824;9.384;2023-02-08T07:03:42;14.50;;;8.27;;
13785;SDS011;47474;48.824;9.384;2023-02-08T07:06:10;12.30;;;8.27;;
13785;SDS011;47474;48.824;9.384;2023-02-08T07:08:37;17.10;;;9.73;;
13785;SDS011;47474;48.824;9.384;2023-02-08T07:11:08;20.07;;;12.37;;
13785;SDS011;47474;48.824;9.384;2023-02-08T07:13:36;18.07;;;10.97;;
13785;SDS011;47474;48.824;9.384;2023-02-08T07:16:03;15.43;;;8.87;;
13785;SDS011;47474;48.824;9.384;2023-02-08T07:18:29;17.43;;;9.10;;
13785;SDS011;47474;48.824;9.384;2023-02-08T07:20:56;12.63;;;8.83;;
13785;SDS011;47474;48.824;9.384;2023-02-08T07:23:22;19.83;;;8.47;;
13785;SDS011;47474;48.824;9.384;2023-02-08T07:25:55;13.63;;;8.17;;
13785;SDS011;47474;48.824;9.384;2023-02-08T07:28:25;12.90;;;8.17;;
13785;SDS011;47474;48.824;9.384;2023-02-08T07:30:51;10.83;;;7.73;;
13785;SDS011;47474;48.824;9.384;2023-02-08T07:33:18;13.80;;;8.07;;
13785;SDS011;47474;48.824;9.384;2023-02-08T07:35:46;11.67;;;8.20;;
13785;SDS011;47474;48.824;9.384;2023-02-08T07:38:14;13.00;;;9.53;;
13785;SDS011;47474;48.824;9.384;2023-02-08T07:40:40;13.37;;;9.13;;
13785;SDS011;47474;48.824;9.384;2023-02-08T07:43:07;14.13;;;9.60;;
13785;SDS011;47474;48.824;9.384;2023-02-08T07:45:37;16.93;;;11.27;;
13785;SDS011;47474;48.824;9.384;2023-02-08T07:48:03;18.37;;;12.50;;
13785;SDS011;47474;48.824;9.384;2023-02-08T07:50:30;20.27;;;11.90;;
13785;SDS011;47474;48.824;9.384;2023-02-08T07:52:57;23.13;;;12.27;;
13785;SDS011;47474;48.824;9.384;2023-02-08T07:55:23;23.20;;;13.30;;
13785;SDS011;47474;48.824;9.384;2023-02-08T07:57:51;35.23;;;17.33;;
13785;SDS011;47474;48.824;9.384;2023-02-08T08:00:22;26.50;;;15.43;;
13785;SDS011;47474;48.824;9.384;2023-02-08T08:02:52;26.83;;;15.83;;
13785;SDS011;47474;48.824;9.384;2023-02-08T08:05:19;23.60;;;15.47;;
13785;SDS011;47474;48.824;9.384;2023-02-08T08:07:46;24.67;;;15.17;;
13785;SDS011;47474;48.824;9.384;2023-02-08T08:10:13;22.67;;;14.97;;
13785;SDS011;47474;48.824;9.384;2023-02-08T08:12:40;21.63;;;12.30;;
13785;SDS011;47474;48.824;9.384;2023-02-08T08:15:09;26.37;;;15.33;;
13785;SDS011;47474;48.824;9.384;2023-02-08T08:17:54;41.33;;;21.83;;
13785;SDS011;47474;48.824;9.384;2023-02-08T08:20:27;40.03;;;23.03;;
13785;SDS011;47474;48.824;9.384;2023-02-08T08:23:12;25.03;;;14.53;;
13785;SDS011;47474;48.824;9.384;2023-02-08T08:25:47;21.87;;;13.20;;
13785;SDS011;47474;48.824;9.384;2023-02-08T08:28:15;22.13;;;12.77;;
13785;SDS011;47474;48.824;9.384;2023-02-08T08:30:42;19.47;;;12.57;;
13785;SDS011;47474;48.824;9.384;2023-02-08T08:33:14;19.97;;;13.10;;
13785;SDS011;47474;48.824;9.384;2023-02-08T08:35:43;20.50;;;11.50;;
13785;SDS011;47474;48.824;9.384;2023-02-08T08:38:17;20.13;;;12.27;;
13785;SDS011;47474;48.824;9.384;2023-02-08T08:40:44;21.83;;;11.70;;
13785;SDS011;47474;48.824;9.384;2023-02-08T08:43:12;18.33;;;10.73;;
13785;SDS011;47474;48.824;9.384;2023-02-08T08:45:40;17.13;;;10.83;;
13785;SDS011;47474;48.824;9.384;2023-02-08T08:48:16;16.30;;;10.27;;
13785;SDS011;47474;48.824;9.384;2023-02-08T08:50:45;17.23;;;10.77;;
13785;SDS011;47474;48.824;9.384;2023-02-08T08:53:15;17.63;;;11.20;;
13785;SDS011;47474;48.824;9.384;2023-02-08T08:55:43;16.23;;;10.03;;
13785;SDS011;47474;48.824;9.384;2023-02-08T08:58:09;15.50;;;10.90;;
13785;SDS011;47474;48.824;9.384;2023-02-08T09:00:39;15.63;;;10.20;;
13785;SDS011;47474;48.824;9.384;2023-02-08T09:03:06;17.93;;;10.47;;
13785;SDS011;47474;48.824;9.384;2023-02-08T09:05:37;16.33;;;10.03;;
13785;SDS011;47474;48.824;9.384;2023-02-08T09:08:07;18.73;;;9.90;;
13785;SDS011;47474;48.824;9.384;2023-02-08T09:10:37;17.17;;;10.37;;
13785;SDS011;47474;48.824;9.384;2023-02-08T09:13:04;16.47;;;10.40;;
13785;SDS011;47474;48.824;9.384;2023-02-08T09:15:31;17.67;;;10.77;;
13785;SDS011;47474;48.824;9.384;2023-02-08T09:17:57;18.03;;;10.73;;
13785;SDS011;47474;48.824;9.384;2023-02-08T09:20:24;19.30;;;11.10;;
13785;SDS011;47474;48.824;9.384;2023-02-08T09:22:51;16.10;;;10.67;;
13785;SDS011;47474;48.824;9.384;2023-02-08T09:25:18;20.50;;;10.80;;
13785;SDS011;47474;48.824;9.384;2023-02-08T09:27:44;12.93;;;9.80;;
13785;SDS011;47474;48.824;9.384;2023-02-08T09:30:11;17.07;;;10.17;;
13785;SDS011;47474;48.824;9.384;2023-02-08T09:32:38;14.50;;;9.40;;
13785;SDS011;47474;48.824;9.384;2023-02-08T09:35:05;15.10;;;10.37;;
13785;SDS011;47474;48.824;9.384;2023-02-08T09:37:32;19.20;;;10.40;;
13785;SDS011;47474;48.824;9.384;2023-02-08T09:40:01;17.43;;;9.93;;
13785;SDS011;47474;48.824;9.384;2023-02-08T09:42:37;15.13;;;10.00;;
13785;SDS011;47474;48.824;9.384;2023-02-08T09:47:57;13.93;;;9.73;;
13785;SDS011;47474;48.824;9.384;2023-02-08T09:50:27;18.93;;;11.17;;
13785;SDS011;47474;48.824;9.384;2023-02-08T09:53:03;19.37;;;10.23;;
13785;SDS011;47474;48.824;9.384;2023-02-08T09:55:35;17.33;;;10.07;;
13785;SDS011;47474;48.824;9.384;2023-02-08T09:58:04;15.63;;;10.00;;
13785;SDS011;47474;48.824;9.384;2023-02-08T10:00:39;12.53;;;9.13;;
13785;SDS011;47474;48.824;9.384;2023-02-08T10:03:07;18.80;;;10.57;;
13785;SDS011;47474;48.824;9.384;2023-02-08T10:05:47;17.53;;;10.33;;
13785;SDS011;47474;48.824;9.384;2023-02-08T10:08:13;16.13;;;10.57;;
13785;SDS011;47474;48.824;9.384;2023-02-08T10:10:42;16.93;;;10.27;;
13785;SDS011;47474;48.824;9.384;2023-02-08T10:13:22;15.37;;;10.07;;
13785;SDS011;47474;48.824;9.384;2023-02-08T10:16:00;13.03;;;9.00;;
13785;SDS011;47474;48.824;9.384;2023-02-08T10:18:36;15.73;;;9.33;;
13785;SDS011;47474;48.824;9.384;2023-02-08T10:21:10;15.60;;;10.00;;
13785;SDS011;47474;48.824;9.384;2023-02-08T10:23:45;15.60;;;9.53;;
13785;SDS011;47474;48.824;9.384;2023-02-08T10:26:23;13.43;;;10.20;;
13785;SDS011;47474;48.824;9.384;2023-02-08T10:29:09;13.50;;;8.90;;
13785;SDS011;47474;48.824;9.384;2023-02-08T10:31:51;13.77;;;8.63;;
13785;SDS011;47474;48.824;9.384;2023-02-08T10:34:34;13.97;;;9.67;;
13785;SDS011;47474;48.824;9.384;2023-02-08T10:37:09;14.43;;;9.60;;
13785;SDS011;47474;48.824;9.384;2023-02-08T10:39:38;13.60;;;9.60;;
13785;SDS011;47474;48.824;9.384;2023-02-08T10:42:09;13.77;;;8.90;;
13785;SDS011;47474;48.824;9.384;2023-02-08T10:44:42;13.07;;;8.57;;
13785;SDS011;47474;48.824;9.384;2023-02-08T10:47:16;12.40;;;7.97;;
13785;SDS011;47474;48.824;9.384;2023-02-08T10:49:49;12.17;;;7.97;;
13785;SDS011;47474;48.824;9.384;2023-02-08T10:52:19;11.57;;;7.07;;
13785;SDS011;47474;48.824;9.384;2023-02-08T10:54:45;11.13;;;6.63;;
13785;SDS011;47474;48.824;9.384;2023-02-08T10:57:13;11.60;;;6.27;;
13785;SDS011;47474;48.824;9.384;2023-02-08T10:59:46;9.07;;;6.03;;
13785;SDS011;47474;48.824;9.384;2023-02-08T11:02:18;9.17;;;6.27;;
13785;SDS011;47474;48.824;9.384;2023-02-08T11:04:55;14.70;;;12.07;;
13785;SDS011;47474;48.824;9.384;2023-02-08T11:07:24;7.40;;;5.80;;
13785;SDS011;47474;48.824;9.384;2023-02-08T11:09:50;7.20;;;5.80;;
13785;SDS011;47474;48.824;9.384;2023-02-08T11:12:19;10.87;;;6.43;;
13785;SDS011;47474;48.824;9.384;2023-02-08T11:14:48;10.30;;;6.40;;
13785;SDS011;47474;48.824;9.384;2023-02-08T11:17:25;8.20;;;5.10;;
13785;SDS011;47474;48.824;9.384;2023-02-08T11:23:18;16.37;;;10.93;;
13785;SDS011;47474;48.824;9.384;2023-02-08T11:25:46;19.40;;;14.53;;
13785;SDS011;47474;48.824;9.384;2023-02-08T11:28:21;11.27;;;7.37;;
13785;SDS011;47474;48.824;9.384;2023-02-08T11:30:56;11.87;;;5.67;;
13785;SDS011;47474;48.824;9.384;2023-02-08T11:33:24;8.07;;;5.50;;
13785;SDS011;47474;48.824;9.384;2023-02-08T11:36:02;10.03;;;6.13;;
13785;SDS011;47474;48.824;9.384;2023-02-08T11:38:31;7.67;;;5.30;;
13785;SDS011;47474;48.824;9.384;2023-02-08T11:41:01;7.70;;;4.90;;
13785;SDS011;47474;48.824;9.384;2023-02-08T11:43:30;6.63;;;4.80;;
13785;SDS011;47474;48.824;9.384;2023-02-08T11:45:58;8.07;;;4.83;;
13785;SDS011;47474;48.824;9.384;2023-02-08T11:48:28;8.70;;;5.60;;
13785;SDS011;47474;48.824;9.384;2023-02-08T11:51:00;7.07;;;5.20;;
13785;SDS011;47474;48.824;9.384;2023-02-08T11:53:29;8.80;;;5.33;;
13785;SDS011;47474;48.824;9.384;2023-02-08T11:56:01;6.73;;;5.27;;
13785;SDS011;47474;48.824;9.384;2023-02-08T11:58:34;8.63;;;5.07;;
13785;SDS011;47474;48.824;9.384;2023-02-08T12:01:01;7.93;;;4.63;;
13785;SDS011;47474;48.824;9.384;2023-02-08T12:03:29;9.77;;;5.27;;
13785;SDS011;47474;48.824;9.384;2023-02-08T12:06:01;6.67;;;4.83;;
13785;SDS011;47474;48.824;9.384;2023-02-08T12:08:34;6.47;;;4.80;;
13785;SDS011;47474;48.824;9.384;2023-02-08T12:11:06;8.73;;;4.60;;
13785;SDS011;47474;48.824;9.384;2023-02-08T12:13:42;6.27;;;4.87;;
13785;SDS011;47474;48.824;9.384;2023-02-08T12:16:35;5.53;;;4.53;;
13785;SDS011;47474;48.824;9.384;2023-02-08T12:19:18;11.57;;;5.20;;
13785;SDS011;47474;48.824;9.384;2023-02-08T12:22:05;7.23;;;4.70;;
13785;SDS011;47474;48.824;9.384;2023-02-08T12:24:35;8.73;;;4.83;;
13785;SDS011;47474;48.824;9.384;2023-02-08T12:27:09;8.43;;;4.67;;
13785;SDS011;47474;48.824;9.384;2023-02-08T12:29:43;7.67;;;4.30;;
13785;SDS011;47474;48.824;9.384;2023-02-08T12:35:20;6.33;;;4.40;;
13785;SDS011;47474;48.824;9.384;2023-02-08T12:37:56;5.10;;;4.40;;
13785;SDS011;47474;48.824;9.384;2023-02-08T12:40:44;5.00;;;3.83;;
13785;SDS011;47474;48.824;9.384;2023-02-08T12:43:19;5.37;;;4.10;;
13785;SDS011;47474;48.824;9.384;2023-02-08T12:45:57;5.57;;;4.50;;
13785;SDS011;47474;48.824;9.384;2023-02-08T12:48:50;5.50;;;3.93;;
13785;SDS011;47474;48.824;9.384;2023-02-08T12:51:23;6.03;;;3.67;;
13785;SDS011;47474;48.824;9.384;2023-02-08T12:53:55;7.60;;;4.03;;
13785;SDS011;47474;48.824;9.384;2023-02-08T12:56:24;6.00;;;3.97;;
13785;SDS011;47474;48.824;9.384;2023-02-08T12:58:53;8.00;;;4.67;;
13785;SDS011;47474;48.824;9.384;2023-02-08T13:04:30;4.90;;;3.67;;
13785;SDS011;47474;48.824;9.384;2023-02-08T13:10:29;5.77;;;4.47;;
13785;SDS011;47474;48.824;9.384;2023-02-08T13:12:59;6.43;;;4.47;;
13785;SDS011;47474;48.824;9.384;2023-02-08T13:15:29;7.80;;;4.90;;
13785;SDS011;47474;48.824;9.384;2023-02-08T13:18:04;6.07;;;4.60;;
13785;SDS011;47474;48.824;9.384;2023-02-08T13:20:36;10.20;;;4.90;;
13785;SDS011;47474;48.824;9.384;2023-02-08T13:23:12;7.27;;;4.77;;
13785;SDS011;47474;48.824;9.384;2023-02-08T13:25:42;7.20;;;4.30;;
13785;SDS011;47474;48.824;9.384;2023-02-08T13:28:11;6.80;;;4.10;;
13785;SDS011;47474;48.824;9.384;2023-02-08T13:30:43;7.17;;;4.23;;
13785;SDS011;47474;48.824;9.384;2023-02-08T13:33:13;6.37;;;4.50;;
13785;SDS011;47474;48.824;9.384;2023-02-08T13:35:47;5.70;;;4.23;;
13785;SDS011;47474;48.824;9.384;2023-02-08T13:38:17;7.50;;;4.70;;
13785;SDS011;47474;48.824;9.384;2023-02-08T13:40:47;6.20;;;4.50;;
13785;SDS011;47474;48.824;9.384;2023-02-08T13:43:28;6.77;;;4.90;;
13785;SDS011;47474;48.824;9.384;2023-02-08T13:45:59;6.47;;;4.33;;
13785;SDS011;47474;48.824;9.384;2023-02-08T13:48:30;7.43;;;4.70;;
13785;SDS011;47474;48.824;9.384;2023-02-08T13:51:06;7.33;;;5.37;;
13785;SDS011;47474;48.824;9.384;2023-02-08T13:54:27;8.03;;;4.90;;
13785;SDS011;47474;48.824;9.384;2023-02-08T13:56:54;7.57;;;4.33;;
13785;SDS011;47474;48.824;9.384;2023-02-08T13:59:25;7.00;;;5.30;;
13785;SDS011;47474;48.824;9.384;2023-02-08T14:02:16;7.93;;;5.47;;
13785;SDS011;47474;48.824;9.384;2023-02-08T14:04:47;7.83;;;5.20;;
13785;SDS011;47474;48.824;9.384;2023-02-08T14:07:17;7.50;;;5.40;;
13785;SDS011;47474;48.824;9.384;2023-02-08T14:09:52;8.20;;;5.50;;
13785;SDS011;47474;48.824;9.384;2023-02-08T14:12:34;8.07;;;5.53;;
13785;SDS011;47474;48.824;9.384;2023-02-08T14:15:14;9.17;;;5.83;;
13785;SDS011;47474;48.824;9.384;2023-02-08T14:17:49;9.30;;;6.03;;
13785;SDS011;47474;48.824;9.384;2023-02-08T14:20:19;8.53;;;6.07;;
13785;SDS011;47474;48.824;9.384;2023-02-08T14:22:48;8.60;;;5.83;;
13785;SDS011;47474;48.824;9.384;2023-02-08T14:25:18;8.40;;;5.70;;
13785;SDS011;47474;48.824;9.384;2023-02-08T14:27:48;10.60;;;5.83;;
13785;SDS011;47474;48.824;9.384;2023-02-08T14:30:21;8.30;;;6.10;;
13785;SDS011;47474;48.824;9.384;2023-02-08T14:32:51;6.97;;;5.87;;
13785;SDS011;47474;48.824;9.384;2023-02-08T14:35:19;9.43;;;6.37;;
13785;SDS011;47474;48.824;9.384;2023-02-08T14:37:48;9.60;;;6.63;;
13785;SDS011;47474;48.824;9.384;2023-02-08T14:49:09;12.27;;;6.27;;
13785;SDS011;47474;48.824;9.384;2023-02-08T14:51:37;8.67;;;5.83;;
13785;SDS011;47474;48.824;9.384;2023-02-08T14:54:13;7.47;;;5.50;;
13785;SDS011;47474;48.824;9.384;2023-02-08T14:56:44;10.83;;;6.30;;
13785;SDS011;47474;48.824;9.384;2023-02-08T14:59:17;9.03;;;6.37;;
13785;SDS011;47474;48.824;9.384;2023-02-08T15:01:47;9.73;;;6.03;;
13785;SDS011;47474;48.824;9.384;2023-02-08T15:04:17;8.83;;;6.07;;
13785;SDS011;47474;48.824;9.384;2023-02-08T15:06:51;9.83;;;6.67;;
13785;SDS011;47474;48.824;9.384;2023-02-08T15:09:25;9.53;;;6.27;;
13785;SDS011;47474;48.824;9.384;2023-02-08T15:11:57;9.50;;;6.43;;
13785;SDS011;47474;48.824;9.384;2023-02-08T15:14:26;6.43;;;5.30;;
13785;SDS011;47474;48.824;9.384;2023-02-08T15:16:54;7.90;;;5.67;;
13785;SDS011;47474;48.824;9.384;2023-02-08T15:19:22;9.63;;;6.00;;
13785;SDS011;47474;48.824;9.384;2023-02-08T15:21:50;9.13;;;6.40;;
13785;SDS011;47474;48.824;9.384;2023-02-08T15:24:17;8.77;;;6.07;;
13785;SDS011;47474;48.824;9.384;2023-02-08T15:26:48;10.47;;;6.27;;